sensor_id;sensor_type;location;lat;lon;timestamp;pressure;altitude;pressure_sealevel;temperature;humidity
42125;BME280;27787;44.594;11.046;2023-07-24T00:00:21;100763.38;;;26.03;62.54
42125;BME280;27787;44.594;11.046;2023-07-24T00:03:05;100764.59;;;25.97;63.15
42125;BME280;27787;44.594;11.046;2023-07-24T00:05:50;100770.09;;;25.96;60.72
42125;BME280;27787;44.594;11.046;2023-07-24T00:08:34;100772.91;;;25.94;58.31
42125;BME280;27787;44.594;11.046;2023-07-24T00:11:18;100773.41;;;26.01;57.30
42125;BME280;27787;44.594;11.046;2023-07-24T00:14:02;100772.19;;;26.06;56.26
42125;BME280;27787;44.594;11.046;2023-07-24T00:16:47;100759.44;;;26.08;56.57
42125;BME280;27787;44.594;11.046;2023-07-24T00:19:31;100758.66;;;26.06;57.94
42125;BME280;27787;44.594;11.046;2023-07-24T00:22:15;100755.53;;;25.98;59.18
42125;BME280;27787;44.594;11.046;2023-07-24T00:24:59;100753.00;;;25.95;59.84
42125;BME280;27787;44.594;11.046;2023-07-24T00:27:43;100743.28;;;25.91;59.61
42125;BME280;27787;44.594;11.046;2023-07-24T00:30:27;100742.41;;;25.91;59.86
42125;BME280;27787;44.594;11.046;2023-07-24T00:33:11;100749.59;;;25.92;59.16
42125;BME280;27787;44.594;11.046;2023-07-24T00:35:56;100723.56;;;25.89;57.46
42125;BME280;27787;44.594;11.046;2023-07-24T00:38:41;100715.53;;;25.87;56.10
42125;BME280;27787;44.594;11.046;2023-07-24T00:41:26;100717.38;;;25.87;56.63
42125;BME280;27787;44.594;11.046;2023-07-24T00:44:11;100722.69;;;25.88;57.32
42125;BME280;27787;44.594;11.046;2023-07-24T00:46:56;100721.59;;;25.93;57.71
42125;BME280;27787;44.594;11.046;2023-07-24T00:49:40;100724.19;;;25.94;59.56
42125;BME280;27787;44.594;11.046;2023-07-24T00:52:25;100732.41;;;25.93;59.37
42125;BME280;27787;44.594;11.046;2023-07-24T00:55:10;100734.38;;;25.89;58.34
42125;BME280;27787;44.594;11.046;2023-07-24T00:57:59;100721.75;;;25.74;57.01
42125;BME280;27787;44.594;11.046;2023-07-24T01:00:44;100718.22;;;25.56;58.14
42125;BME280;27787;44.594;11.046;2023-07-24T01:03:33;100731.91;;;25.53;58.97
42125;BME280;27787;44.594;11.046;2023-07-24T01:06:18;100720.91;;;25.56;57.52
42125;BME280;27787;44.594;11.046;2023-07-24T01:09:02;100727.97;;;25.58;56.21
42125;BME280;27787;44.594;11.046;2023-07-24T01:11:52;100733.13;;;25.63;56.14
42125;BME280;27787;44.594;11.046;2023-07-24T01:14:47;100733.03;;;25.65;56.03
42125;BME280;27787;44.594;11.046;2023-07-24T01:17:39;100733.28;;;25.60;55.78
42125;BME280;27787;44.594;11.046;2023-07-24T01:20:28;100728.94;;;25.57;55.83
42125;BME280;27787;44.594;11.046;2023-07-24T01:26:22;100738.25;;;25.52;56.57
42125;BME280;27787;44.594;11.046;2023-07-24T01:29:08;100740.50;;;25.44;56.62
42125;BME280;27787;44.594;11.046;2023-07-24T01:31:53;100741.00;;;25.35;56.46
42125;BME280;27787;44.594;11.046;2023-07-24T01:34:37;100741.25;;;25.30;56.96
42125;BME280;27787;44.594;11.046;2023-07-24T01:37:22;100735.38;;;25.22;57.70
42125;BME280;27787;44.594;11.046;2023-07-24T01:40:08;100745.56;;;25.17;57.72
42125;BME280;27787;44.594;11.046;2023-07-24T01:42:53;100732.06;;;25.17;57.07
42125;BME280;27787;44.594;11.046;2023-07-24T01:45:37;100725.06;;;25.13;56.19
42125;BME280;27787;44.594;11.046;2023-07-24T01:48:22;100712.38;;;25.15;55.77
42125;BME280;27787;44.594;11.046;2023-07-24T01:51:06;100704.19;;;25.16;55.76
42125;BME280;27787;44.594;11.046;2023-07-24T01:53:50;100689.88;;;25.14;57.62
42125;BME280;27787;44.594;11.046;2023-07-24T01:56:36;100688.81;;;24.99;59.13
42125;BME280;27787;44.594;11.046;2023-07-24T01:59:20;100689.41;;;24.89;60.38
42125;BME280;27787;44.594;11.046;2023-07-24T02:02:05;100696.09;;;24.82;62.03
42125;BME280;27787;44.594;11.046;2023-07-24T02:04:49;100688.63;;;24.69;62.61
42125;BME280;27787;44.594;11.046;2023-07-24T02:07:34;100680.00;;;24.63;62.30
42125;BME280;27787;44.594;11.046;2023-07-24T02:10:18;100693.41;;;24.64;62.29
42125;BME280;27787;44.594;11.046;2023-07-24T02:13:03;100693.63;;;24.60;62.41
42125;BME280;27787;44.594;11.046;2023-07-24T02:15:47;100686.72;;;24.54;62.17
42125;BME280;27787;44.594;11.046;2023-07-24T02:18:31;100666.25;;;24.50;62.94
42125;BME280;27787;44.594;11.046;2023-07-24T02:21:16;100658.47;;;24.44;62.99
42125;BME280;27787;44.594;11.046;2023-07-24T02:24:00;100634.50;;;24.38;62.36
42125;BME280;27787;44.594;11.046;2023-07-24T02:26:44;100593.94;;;24.39;63.03
42125;BME280;27787;44.594;11.046;2023-07-24T02:29:28;100563.78;;;24.49;63.28
42125;BME280;27787;44.594;11.046;2023-07-24T02:32:12;100587.66;;;24.56;63.77
42125;BME280;27787;44.594;11.046;2023-07-24T02:34:56;100617.44;;;24.55;62.22
42125;BME280;27787;44.594;11.046;2023-07-24T02:37:40;100648.84;;;24.56;59.82
42125;BME280;27787;44.594;11.046;2023-07-24T02:40:29;100655.47;;;24.50;58.31
42125;BME280;27787;44.594;11.046;2023-07-24T02:43:12;100650.78;;;24.36;58.40
42125;BME280;27787;44.594;11.046;2023-07-24T02:46:01;100658.81;;;24.19;58.84
42125;BME280;27787;44.594;11.046;2023-07-24T02:48:45;100639.91;;;24.02;59.24
42125;BME280;27787;44.594;11.046;2023-07-24T02:51:29;100630.38;;;23.95;59.58
42125;BME280;27787;44.594;11.046;2023-07-24T02:54:14;100635.78;;;23.95;59.58
42125;BME280;27787;44.594;11.046;2023-07-24T02:56:58;100639.22;;;23.98;59.60
42125;BME280;27787;44.594;11.046;2023-07-24T02:59:42;100636.28;;;24.03;59.01
42125;BME280;27787;44.594;11.046;2023-07-24T03:02:26;100641.66;;;24.03;59.26
42125;BME280;27787;44.594;11.046;2023-07-24T03:05:11;100642.00;;;23.97;59.51
42125;BME280;27787;44.594;11.046;2023-07-24T03:07:55;100649.41;;;23.92;60.37
42125;BME280;27787;44.594;11.046;2023-07-24T03:10:41;100648.53;;;23.91;60.80
42125;BME280;27787;44.594;11.046;2023-07-24T03:13:25;100648.69;;;23.88;60.10
42125;BME280;27787;44.594;11.046;2023-07-24T03:16:09;100654.84;;;23.73;60.80
42125;BME280;27787;44.594;11.046;2023-07-24T03:18:54;100670.44;;;23.66;61.60
42125;BME280;27787;44.594;11.046;2023-07-24T03:21:38;100667.66;;;23.68;61.96
42125;BME280;27787;44.594;11.046;2023-07-24T03:24:22;100666.78;;;23.67;62.35
42125;BME280;27787;44.594;11.046;2023-07-24T03:27:07;100677.88;;;23.61;62.30
42125;BME280;27787;44.594;11.046;2023-07-24T03:29:51;100683.41;;;23.58;62.23
42125;BME280;27787;44.594;11.046;2023-07-24T03:32:37;100678.66;;;23.63;62.76
42125;BME280;27787;44.594;11.046;2023-07-24T03:35:21;100682.88;;;23.69;62.70
42125;BME280;27787;44.594;11.046;2023-07-24T03:38:05;100671.97;;;23.72;62.80
42125;BME280;27787;44.594;11.046;2023-07-24T03:40:50;100658.06;;;23.62;62.61
42125;BME280;27787;44.594;11.046;2023-07-24T03:43:34;100642.38;;;23.51;62.24
42125;BME280;27787;44.594;11.046;2023-07-24T03:46:18;100645.16;;;23.50;63.22
42125;BME280;27787;44.594;11.046;2023-07-24T03:49:03;100635.38;;;23.47;64.40
42125;BME280;27787;44.594;11.046;2023-07-24T03:51:47;100613.47;;;23.36;63.19
42125;BME280;27787;44.594;11.046;2023-07-24T03:54:31;100602.97;;;23.30;63.84
42125;BME280;27787;44.594;11.046;2023-07-24T03:57:15;100611.44;;;23.22;64.30
42125;BME280;27787;44.594;11.046;2023-07-24T03:59:59;100611.78;;;23.15;65.56
42125;BME280;27787;44.594;11.046;2023-07-24T04:02:44;100603.28;;;23.05;66.59
42125;BME280;27787;44.594;11.046;2023-07-24T04:05:28;100597.28;;;23.17;66.61
42125;BME280;27787;44.594;11.046;2023-07-24T04:08:11;100585.94;;;23.30;66.74
42125;BME280;27787;44.594;11.046;2023-07-24T04:10:55;100583.47;;;23.44;66.76
42125;BME280;27787;44.594;11.046;2023-07-24T04:13:42;100571.81;;;23.62;65.62
42125;BME280;27787;44.594;11.046;2023-07-24T04:16:27;100574.94;;;23.72;65.27
42125;BME280;27787;44.594;11.046;2023-07-24T04:19:11;100587.22;;;23.77;65.37
42125;BME280;27787;44.594;11.046;2023-07-24T04:21:55;100591.50;;;23.81;64.82
42125;BME280;27787;44.594;11.046;2023-07-24T04:24:39;100604.84;;;23.85;64.61
42125;BME280;27787;44.594;11.046;2023-07-24T04:27:24;100586.75;;;23.87;64.86
42125;BME280;27787;44.594;11.046;2023-07-24T04:30:08;100620.41;;;23.97;64.98
42125;BME280;27787;44.594;11.046;2023-07-24T04:32:52;100676.56;;;24.06;65.01
42125;BME280;27787;44.594;11.046;2023-07-24T04:35:36;100715.13;;;24.08;66.33
42125;BME280;27787;44.594;11.046;2023-07-24T04:38:21;100744.50;;;23.95;66.23
42125;BME280;27787;44.594;11.046;2023-07-24T04:41:05;100755.53;;;23.72;67.62
42125;BME280;27787;44.594;11.046;2023-07-24T04:43:49;100770.53;;;23.59;67.44
42125;BME280;27787;44.594;11.046;2023-07-24T04:46:33;100813.75;;;23.55;68.90
42125;BME280;27787;44.594;11.046;2023-07-24T04:49:18;100832.38;;;23.62;69.07
42125;BME280;27787;44.594;11.046;2023-07-24T04:52:02;100762.44;;;23.59;69.63
42125;BME280;27787;44.594;11.046;2023-07-24T04:54:46;100573.09;;;23.53;70.44
42125;BME280;27787;44.594;11.046;2023-07-24T04:57:30;100472.34;;;23.56;69.92
42125;BME280;27787;44.594;11.046;2023-07-24T05:00:14;100524.25;;;23.61;69.22
42125;BME280;27787;44.594;11.046;2023-07-24T05:02:59;100618.19;;;23.50;70.04
42125;BME280;27787;44.594;11.046;2023-07-24T05:05:43;100738.41;;;23.34;72.12
42125;BME280;27787;44.594;11.046;2023-07-24T05:08:31;100971.13;;;23.31;73.62
42125;BME280;27787;44.594;11.046;2023-07-24T05:11:15;101033.47;;;23.22;72.21
42125;BME280;27787;44.594;11.046;2023-07-24T05:13:59;101022.97;;;23.14;71.18
42125;BME280;27787;44.594;11.046;2023-07-24T05:16:43;100968.56;;;23.06;71.45
42125;BME280;27787;44.594;11.046;2023-07-24T05:19:27;100894.78;;;23.10;71.01
42125;BME280;27787;44.594;11.046;2023-07-24T05:22:11;100876.41;;;23.20;71.31
42125;BME280;27787;44.594;11.046;2023-07-24T05:24:55;100861.59;;;23.30;71.15
42125;BME280;27787;44.594;11.046;2023-07-24T05:27:39;100830.81;;;23.36;72.25
42125;BME280;27787;44.594;11.046;2023-07-24T05:30:23;100805.34;;;23.43;72.95
42125;BME280;27787;44.594;11.046;2023-07-24T05:33:08;100786.47;;;23.43;73.52
42125;BME280;27787;44.594;11.046;2023-07-24T05:35:57;100765.22;;;23.37;73.26
42125;BME280;27787;44.594;11.046;2023-07-24T05:38:42;100810.00;;;23.39;73.78
42125;BME280;27787;44.594;11.046;2023-07-24T05:41:26;100801.03;;;23.39;74.20
42125;BME280;27787;44.594;11.046;2023-07-24T05:44:10;100760.56;;;23.40;74.28
42125;BME280;27787;44.594;11.046;2023-07-24T05:46:54;100714.69;;;23.42;73.95
42125;BME280;27787;44.594;11.046;2023-07-24T05:49:38;100662.91;;;23.35;75.00
42125;BME280;27787;44.594;11.046;2023-07-24T05:52:22;100644.69;;;23.40;75.33
42125;BME280;27787;44.594;11.046;2023-07-24T05:55:06;100642.91;;;23.60;75.91
42125;BME280;27787;44.594;11.046;2023-07-24T05:57:50;100630.28;;;23.79;75.42
42125;BME280;27787;44.594;11.046;2023-07-24T06:00:35;100635.63;;;23.98;74.40
42125;BME280;27787;44.594;11.046;2023-07-24T06:03:20;100660.81;;;24.16;73.61
42125;BME280;27787;44.594;11.046;2023-07-24T06:06:05;100571.06;;;24.29;73.64
42125;BME280;27787;44.594;11.046;2023-07-24T06:08:49;100609.09;;;24.42;72.72
42125;BME280;27787;44.594;11.046;2023-07-24T06:11:34;100585.38;;;24.49;72.30
42125;BME280;27787;44.594;11.046;2023-07-24T06:14:19;100584.00;;;24.57;71.30
42125;BME280;27787;44.594;11.046;2023-07-24T06:17:03;100596.91;;;24.68;71.36
42125;BME280;27787;44.594;11.046;2023-07-24T06:19:47;100559.81;;;24.71;71.37
42125;BME280;27787;44.594;11.046;2023-07-24T06:22:32;100580.94;;;24.81;70.60
42125;BME280;27787;44.594;11.046;2023-07-24T06:25:16;100579.81;;;24.85;70.69
42125;BME280;27787;44.594;11.046;2023-07-24T06:28:00;100631.19;;;24.83;71.12
42125;BME280;27787;44.594;11.046;2023-07-24T06:30:44;100651.13;;;24.81;70.99
42125;BME280;27787;44.594;11.046;2023-07-24T06:33:28;100643.13;;;24.79;71.47
42125;BME280;27787;44.594;11.046;2023-07-24T06:36:12;100693.56;;;24.61;72.14
42125;BME280;27787;44.594;11.046;2023-07-24T06:38:57;100715.06;;;24.46;72.16
42125;BME280;27787;44.594;11.046;2023-07-24T06:41:41;100700.84;;;24.42;73.19
42125;BME280;27787;44.594;11.046;2023-07-24T06:44:26;100656.56;;;24.46;74.04
42125;BME280;27787;44.594;11.046;2023-07-24T06:47:10;100663.75;;;24.28;76.32
42125;BME280;27787;44.594;11.046;2023-07-24T06:49:53;100657.84;;;24.20;76.94
42125;BME280;27787;44.594;11.046;2023-07-24T06:52:37;100645.25;;;24.21;77.43
42125;BME280;27787;44.594;11.046;2023-07-24T06:55:22;100617.09;;;24.26;77.61
42125;BME280;27787;44.594;11.046;2023-07-24T06:58:05;100576.31;;;24.32;77.38
42125;BME280;27787;44.594;11.046;2023-07-24T07:00:50;100506.16;;;24.32;78.63
42125;BME280;27787;44.594;11.046;2023-07-24T07:03:38;100477.03;;;24.39;79.15
42125;BME280;27787;44.594;11.046;2023-07-24T07:06:22;100444.31;;;24.45;79.37
42125;BME280;27787;44.594;11.046;2023-07-24T07:09:06;100426.75;;;24.54;78.96
42125;BME280;27787;44.594;11.046;2023-07-24T07:11:50;100391.25;;;24.61;77.67
42125;BME280;27787;44.594;11.046;2023-07-24T07:14:35;100357.72;;;24.65;76.88
42125;BME280;27787;44.594;11.046;2023-07-24T07:17:19;100393.31;;;24.72;77.62
42125;BME280;27787;44.594;11.046;2023-07-24T07:20:03;100379.66;;;24.75;77.76
42125;BME280;27787;44.594;11.046;2023-07-24T07:22:47;100436.19;;;24.78;78.28
42125;BME280;27787;44.594;11.046;2023-07-24T07:25:32;100437.72;;;24.82;78.01
42125;BME280;27787;44.594;11.046;2023-07-24T07:28:17;100412.81;;;24.93;77.85
42125;BME280;27787;44.594;11.046;2023-07-24T07:31:01;100394.09;;;25.06;77.65
42125;BME280;27787;44.594;11.046;2023-07-24T07:33:46;100383.72;;;25.14;77.05
42125;BME280;27787;44.594;11.046;2023-07-24T07:36:30;100430.78;;;25.10;77.45
42125;BME280;27787;44.594;11.046;2023-07-24T07:39:14;100445.25;;;25.09;77.13
42125;BME280;27787;44.594;11.046;2023-07-24T07:41:58;100461.34;;;25.26;75.83
42125;BME280;27787;44.594;11.046;2023-07-24T07:44:42;100483.84;;;25.26;77.43
42125;BME280;27787;44.594;11.046;2023-07-24T07:47:26;100457.78;;;25.10;77.95
42125;BME280;27787;44.594;11.046;2023-07-24T07:50:11;100431.13;;;24.88;79.00
42125;BME280;27787;44.594;11.046;2023-07-24T07:52:55;100461.25;;;24.80;79.12
42125;BME280;27787;44.594;11.046;2023-07-24T07:55:39;100462.53;;;24.73;80.03
42125;BME280;27787;44.594;11.046;2023-07-24T07:58:23;100455.06;;;24.62;79.36
42125;BME280;27787;44.594;11.046;2023-07-24T08:01:08;100482.06;;;24.62;79.87
42125;BME280;27787;44.594;11.046;2023-07-24T08:03:52;100482.13;;;24.61;79.73
42125;BME280;27787;44.594;11.046;2023-07-24T08:06:36;100448.94;;;24.59;81.37
42125;BME280;27787;44.594;11.046;2023-07-24T08:09:20;100443.47;;;24.60;82.96
42125;BME280;27787;44.594;11.046;2023-07-24T08:12:05;100452.56;;;24.75;84.26
42125;BME280;27787;44.594;11.046;2023-07-24T08:14:49;100445.84;;;24.82;80.30
42125;BME280;27787;44.594;11.046;2023-07-24T08:17:33;100441.66;;;24.92;78.07
42125;BME280;27787;44.594;11.046;2023-07-24T08:20:17;100442.44;;;25.10;77.73
42125;BME280;27787;44.594;11.046;2023-07-24T08:23:02;100442.50;;;25.24;76.75
42125;BME280;27787;44.594;11.046;2023-07-24T08:25:55;100434.56;;;25.37;77.22
42125;BME280;27787;44.594;11.046;2023-07-24T08:28:39;100426.50;;;25.51;77.12
42125;BME280;27787;44.594;11.046;2023-07-24T08:31:26;100424.78;;;25.65;74.98
42125;BME280;27787;44.594;11.046;2023-07-24T08:34:10;100431.31;;;25.76;75.53
42125;BME280;27787;44.594;11.046;2023-07-24T08:36:54;100452.22;;;26.03;72.55
42125;BME280;27787;44.594;11.046;2023-07-24T08:39:38;100480.75;;;26.08;71.84
42125;BME280;27787;44.594;11.046;2023-07-24T08:42:23;100481.34;;;26.13;73.35
42125;BME280;27787;44.594;11.046;2023-07-24T08:45:13;100501.66;;;26.21;73.33
42125;BME280;27787;44.594;11.046;2023-07-24T08:47:58;100539.94;;;26.29;73.18
42125;BME280;27787;44.594;11.046;2023-07-24T08:50:43;100575.72;;;26.34;73.08
42125;BME280;27787;44.594;11.046;2023-07-24T08:53:29;100596.06;;;26.41;74.50
42125;BME280;27787;44.594;11.046;2023-07-24T08:56:18;100597.25;;;26.51;78.89
42125;BME280;27787;44.594;11.046;2023-07-24T08:59:02;100574.41;;;26.41;80.54
42125;BME280;27787;44.594;11.046;2023-07-24T09:01:46;100549.25;;;26.39;81.22
42125;BME280;27787;44.594;11.046;2023-07-24T09:04:30;100535.22;;;26.32;81.07
42125;BME280;27787;44.594;11.046;2023-07-24T09:07:14;100553.19;;;26.33;80.56
42125;BME280;27787;44.594;11.046;2023-07-24T09:09:59;100536.69;;;26.38;78.42
42125;BME280;27787;44.594;11.046;2023-07-24T09:12:44;100558.94;;;26.43;77.40
42125;BME280;27787;44.594;11.046;2023-07-24T09:15:28;100533.31;;;26.49;77.29
42125;BME280;27787;44.594;11.046;2023-07-24T09:18:11;100557.03;;;26.59;76.58
42125;BME280;27787;44.594;11.046;2023-07-24T09:20:56;100597.66;;;26.73;76.66
42125;BME280;27787;44.594;11.046;2023-07-24T09:23:40;100638.88;;;26.79;76.53
42125;BME280;27787;44.594;11.046;2023-07-24T09:26:27;100631.13;;;26.87;77.72
42125;BME280;27787;44.594;11.046;2023-07-24T09:29:11;100632.22;;;26.84;77.84
42125;BME280;27787;44.594;11.046;2023-07-24T09:31:55;100631.03;;;26.88;78.98
42125;BME280;27787;44.594;11.046;2023-07-24T09:34:43;100646.72;;;26.83;80.05
42125;BME280;27787;44.594;11.046;2023-07-24T09:37:30;100689.22;;;26.97;80.96
42125;BME280;27787;44.594;11.046;2023-07-24T09:40:15;100719.22;;;27.08;82.41
42125;BME280;27787;44.594;11.046;2023-07-24T09:42:59;100726.59;;;27.06;83.41
42125;BME280;27787;44.594;11.046;2023-07-24T09:45:44;100723.31;;;27.15;82.84
42125;BME280;27787;44.594;11.046;2023-07-24T09:48:30;100718.56;;;27.19;83.10
42125;BME280;27787;44.594;11.046;2023-07-24T09:51:15;100673.75;;;27.13;83.48
42125;BME280;27787;44.594;11.046;2023-07-24T09:54:22;100625.44;;;27.06;86.02
42125;BME280;27787;44.594;11.046;2023-07-24T09:57:10;100575.81;;;27.05;86.02
42125;BME280;27787;44.594;11.046;2023-07-24T09:59:56;100602.91;;;27.05;87.09
42125;BME280;27787;44.594;11.046;2023-07-24T10:02:41;100591.28;;;27.17;87.56
42125;BME280;27787;44.594;11.046;2023-07-24T10:05:25;100561.47;;;27.17;86.87
42125;BME280;27787;44.594;11.046;2023-07-24T10:08:10;100565.03;;;27.18;85.28
42125;BME280;27787;44.594;11.046;2023-07-24T10:10:54;100538.47;;;27.10;85.95
42125;BME280;27787;44.594;11.046;2023-07-24T10:13:40;100513.69;;;27.02;87.29
42125;BME280;27787;44.594;11.046;2023-07-24T10:16:25;100493.75;;;27.03;86.72
42125;BME280;27787;44.594;11.046;2023-07-24T10:19:14;100479.03;;;27.07;86.20
42125;BME280;27787;44.594;11.046;2023-07-24T10:21:59;100467.78;;;27.13;85.95
42125;BME280;27787;44.594;11.046;2023-07-24T10:24:43;100473.56;;;27.21;85.88
42125;BME280;27787;44.594;11.046;2023-07-24T10:27:27;100505.38;;;27.32;84.49
42125;BME280;27787;44.594;11.046;2023-07-24T10:30:12;100494.03;;;27.40;83.00
42125;BME280;27787;44.594;11.046;2023-07-24T10:36:07;100516.81;;;27.64;82.18
42125;BME280;27787;44.594;11.046;2023-07-24T10:38:54;100555.94;;;27.74;81.22
42125;BME280;27787;44.594;11.046;2023-07-24T10:41:39;100592.13;;;27.87;79.60
42125;BME280;27787;44.594;11.046;2023-07-24T10:44:31;100622.72;;;27.89;78.68
42125;BME280;27787;44.594;11.046;2023-07-24T10:47:15;100590.41;;;28.12;79.60
42125;BME280;27787;44.594;11.046;2023-07-24T10:50:00;100529.94;;;28.10;78.39
42125;BME280;27787;44.594;11.046;2023-07-24T10:52:47;100529.81;;;27.99;79.62
42125;BME280;27787;44.594;11.046;2023-07-24T10:55:31;100519.72;;;27.88;80.11
42125;BME280;27787;44.594;11.046;2023-07-24T10:58:15;100496.28;;;27.87;80.77
42125;BME280;27787;44.594;11.046;2023-07-24T11:01:00;100492.16;;;27.94;81.74
42125;BME280;27787;44.594;11.046;2023-07-24T11:03:44;100480.44;;;28.06;82.09
42125;BME280;27787;44.594;11.046;2023-07-24T11:06:29;100459.81;;;28.16;81.55
42125;BME280;27787;44.594;11.046;2023-07-24T11:09:13;100444.66;;;28.27;81.03
42125;BME280;27787;44.594;11.046;2023-07-24T11:11:57;100439.53;;;28.35;80.16
42125;BME280;27787;44.594;11.046;2023-07-24T11:14:52;100439.75;;;28.44;79.24
42125;BME280;27787;44.594;11.046;2023-07-24T11:17:41;100443.72;;;28.52;78.77
42125;BME280;27787;44.594;11.046;2023-07-24T11:20:25;100423.19;;;28.60;78.49
42125;BME280;27787;44.594;11.046;2023-07-24T11:23:10;100397.22;;;28.69;78.07
42125;BME280;27787;44.594;11.046;2023-07-24T11:25:54;100392.28;;;28.74;77.35
42125;BME280;27787;44.594;11.046;2023-07-24T11:28:40;100397.28;;;28.80;76.60
42125;BME280;27787;44.594;11.046;2023-07-24T11:31:24;100409.44;;;28.87;76.54
42125;BME280;27787;44.594;11.046;2023-07-24T11:34:08;100422.72;;;28.92;77.49
42125;BME280;27787;44.594;11.046;2023-07-24T11:36:53;100414.84;;;29.00;77.85
42125;BME280;27787;44.594;11.046;2023-07-24T11:39:37;100411.13;;;29.01;77.56
42125;BME280;27787;44.594;11.046;2023-07-24T11:42:24;100405.38;;;29.05;75.74
42125;BME280;27787;44.594;11.046;2023-07-24T11:45:09;100397.72;;;29.11;74.94
42125;BME280;27787;44.594;11.046;2023-07-24T11:47:56;100398.16;;;29.17;74.67
42125;BME280;27787;44.594;11.046;2023-07-24T11:50:48;100406.69;;;29.24;74.63
42125;BME280;27787;44.594;11.046;2023-07-24T11:53:32;100402.63;;;29.29;73.94
42125;BME280;27787;44.594;11.046;2023-07-24T11:56:17;100400.81;;;29.30;73.93
42125;BME280;27787;44.594;11.046;2023-07-24T11:59:13;100386.91;;;29.22;73.07
42125;BME280;27787;44.594;11.046;2023-07-24T12:01:57;100383.44;;;29.20;73.69
42125;BME280;27787;44.594;11.046;2023-07-24T12:04:41;100358.72;;;29.23;72.47
42125;BME280;27787;44.594;11.046;2023-07-24T12:07:31;100348.88;;;29.33;72.28
42125;BME280;27787;44.594;11.046;2023-07-24T12:10:26;100336.31;;;29.43;71.42
42125;BME280;27787;44.594;11.046;2023-07-24T12:13:11;100330.28;;;29.51;70.43
42125;BME280;27787;44.594;11.046;2023-07-24T12:15:56;100316.22;;;29.57;70.57
42125;BME280;27787;44.594;11.046;2023-07-24T12:18:40;100325.63;;;29.64;69.71
42125;BME280;27787;44.594;11.046;2023-07-24T12:21:24;100331.66;;;29.67;69.32
42125;BME280;27787;44.594;11.046;2023-07-24T12:24:08;100333.53;;;29.67;67.99
42125;BME280;27787;44.594;11.046;2023-07-24T12:26:52;100327.47;;;29.63;66.72
42125;BME280;27787;44.594;11.046;2023-07-24T12:29:36;100299.41;;;29.63;64.84
42125;BME280;27787;44.594;11.046;2023-07-24T12:32:21;100300.38;;;29.62;63.19
42125;BME280;27787;44.594;11.046;2023-07-24T12:35:07;100281.81;;;29.56;62.33
42125;BME280;27787;44.594;11.046;2023-07-24T12:37:52;100293.97;;;29.63;62.95
42125;BME280;27787;44.594;11.046;2023-07-24T12:40:36;100302.25;;;29.73;63.03
42125;BME280;27787;44.594;11.046;2023-07-24T12:43:20;100311.66;;;29.80;62.13
42125;BME280;27787;44.594;11.046;2023-07-24T12:46:04;100305.72;;;29.86;61.05
42125;BME280;27787;44.594;11.046;2023-07-24T12:48:48;100298.44;;;29.98;59.09
42125;BME280;27787;44.594;11.046;2023-07-24T12:51:33;100292.38;;;30.05;59.59
42125;BME280;27787;44.594;11.046;2023-07-24T12:54:17;100276.28;;;30.13;60.87
42125;BME280;27787;44.594;11.046;2023-07-24T12:57:03;100265.00;;;30.18;62.12
42125;BME280;27787;44.594;11.046;2023-07-24T12:59:48;100263.53;;;30.14;63.09
42125;BME280;27787;44.594;11.046;2023-07-24T13:02:32;100254.78;;;30.10;63.57
42125;BME280;27787;44.594;11.046;2023-07-24T13:05:16;100247.81;;;30.17;63.97
42125;BME280;27787;44.594;11.046;2023-07-24T13:08:00;100235.16;;;30.28;63.55
42125;BME280;27787;44.594;11.046;2023-07-24T13:10:44;100233.28;;;30.39;62.28
42125;BME280;27787;44.594;11.046;2023-07-24T13:13:28;100232.88;;;30.44;60.61
42125;BME280;27787;44.594;11.046;2023-07-24T13:16:14;100242.78;;;30.45;58.68
42125;BME280;27787;44.594;11.046;2023-07-24T13:18:59;100227.31;;;30.45;57.25
42125;BME280;27787;44.594;11.046;2023-07-24T13:21:44;100228.41;;;30.54;57.31
42125;BME280;27787;44.594;11.046;2023-07-24T13:24:29;100222.69;;;30.68;58.58
42125;BME280;27787;44.594;11.046;2023-07-24T13:27:13;100210.50;;;30.72;59.42
42125;BME280;27787;44.594;11.046;2023-07-24T13:29:58;100197.75;;;30.73;59.94
42125;BME280;27787;44.594;11.046;2023-07-24T13:32:43;100179.78;;;30.70;59.76
42125;BME280;27787;44.594;11.046;2023-07-24T13:35:27;100162.44;;;30.71;58.93
42125;BME280;27787;44.594;11.046;2023-07-24T13:38:11;100155.75;;;30.75;60.62
42125;BME280;27787;44.594;11.046;2023-07-24T13:40:56;100169.91;;;30.69;58.50
42125;BME280;27787;44.594;11.046;2023-07-24T13:43:39;100185.53;;;30.67;57.36
42125;BME280;27787;44.594;11.046;2023-07-24T13:46:24;100186.25;;;30.69;57.30
42125;BME280;27787;44.594;11.046;2023-07-24T13:49:08;100186.25;;;30.69;55.90
42125;BME280;27787;44.594;11.046;2023-07-24T13:51:52;100195.16;;;30.71;55.95
42125;BME280;27787;44.594;11.046;2023-07-24T13:54:37;100180.53;;;30.72;55.97
42125;BME280;27787;44.594;11.046;2023-07-24T13:57:21;100176.75;;;30.85;57.33
42125;BME280;27787;44.594;11.046;2023-07-24T14:00:06;100184.13;;;30.94;57.53
42125;BME280;27787;44.594;11.046;2023-07-24T14:02:56;100169.84;;;31.01;57.85
42125;BME280;27787;44.594;11.046;2023-07-24T14:05:40;100170.28;;;31.06;58.13
42125;BME280;27787;44.594;11.046;2023-07-24T14:08:24;100174.56;;;31.20;58.71
42125;BME280;27787;44.594;11.046;2023-07-24T14:11:09;100189.41;;;31.27;58.57
42125;BME280;27787;44.594;11.046;2023-07-24T14:13:53;100188.31;;;31.39;57.64
42125;BME280;27787;44.594;11.046;2023-07-24T14:16:37;100170.16;;;31.59;55.18